createdAt,value
2022-11-12T00:01:39.649Z,58.08
2022-11-12T00:04:25.962Z,52.95
2022-11-12T00:07:12.174Z,59.42
2022-11-12T00:09:58.299Z,58.48
2022-11-12T00:12:45.559Z,60.98
2022-11-12T00:15:31.687Z,60.50
2022-11-12T00:18:17.697Z,57.35
2022-11-12T00:21:04.414Z,52.95
2022-11-12T00:23:50.756Z,52.05
2022-11-12T00:26:36.805Z,54.10
2022-11-12T00:29:22.653Z,58.30
2022-11-12T00:32:09.431Z,54.85
2022-11-12T00:34:55.236Z,65.52
2022-11-12T00:37:41.259Z,65.12
2022-11-12T00:40:27.388Z,63.75
2022-11-12T00:43:13.569Z,61.85
2022-11-12T00:46:00.003Z,65.30
2022-11-12T00:48:45.699Z,62.85
2022-11-12T00:51:32.049Z,59.60
2022-11-12T00:54:18.054Z,62.33
2022-11-12T00:57:04.155Z,59.58
2022-11-12T00:59:50.169Z,60.95
2022-11-12T01:02:42.365Z,61.60
2022-11-12T01:05:23.564Z,55.23
2022-11-12T01:08:09.449Z,57.45
2022-11-12T01:10:55.844Z,59.95
2022-11-12T01:13:45.903Z,57.45
2022-11-12T01:16:39.381Z,52.67
2022-11-12T01:19:25.566Z,56.73
2022-11-12T01:22:11.660Z,51.92
2022-11-12T01:24:58.019Z,56.53
2022-11-12T01:27:44.470Z,59.77
2022-11-12T01:30:30.211Z,52.03
2022-11-12T01:33:16.066Z,50.40
2022-11-12T01:36:02.292Z,53.20
2022-11-12T01:38:48.646Z,48.20
2022-11-12T01:41:38.451Z,46.50
2022-11-12T01:44:29.550Z,46.98
2022-11-12T01:47:20.610Z,47.85
2022-11-12T01:50:27.204Z,44.55
2022-11-12T01:53:14.001Z,46.00
2022-11-12T01:56:02.480Z,47.38
2022-11-12T01:58:52.502Z,48.65
2022-11-12T02:01:39.241Z,47.73
2022-11-12T02:04:27.325Z,48.42
2022-11-12T02:07:13.602Z,44.73
2022-11-12T02:10:04.618Z,45.12
2022-11-12T02:13:11.951Z,40.25
2022-11-12T02:15:58.663Z,42.60
2022-11-12T02:18:44.995Z,42.75
2022-11-12T02:21:31.145Z,39.25
2022-11-12T02:24:22.760Z,41.58
2022-11-12T02:27:11.311Z,43.87
2022-11-12T02:29:57.051Z,40.20
2022-11-12T02:32:42.927Z,39.85
2022-11-12T02:35:29.483Z,35.33
2022-11-12T02:38:15.381Z,32.85
2022-11-12T02:41:01.498Z,32.40
2022-11-12T02:43:47.674Z,31.93
2022-11-12T02:46:34.015Z,25.62
2022-11-12T02:49:19.810Z,25.17
2022-11-12T02:52:06.149Z,24.95
2022-11-12T02:54:51.920Z,23.00
2022-11-12T02:57:39.171Z,23.80
2022-11-12T03:00:24.988Z,25.05
2022-11-12T03:03:11.312Z,24.27
2022-11-12T03:06:01.821Z,20.85
2022-11-12T03:08:47.797Z,21.37
2022-11-12T03:11:33.689Z,29.12
2022-11-12T03:14:19.739Z,29.65
2022-11-12T03:17:06.203Z,27.15
2022-11-12T03:19:52.017Z,30.52
2022-11-12T03:22:39.078Z,35.55
2022-11-12T03:25:27.063Z,31.75
2022-11-12T03:28:15.833Z,36.03
2022-11-12T03:31:02.316Z,31.77
2022-11-12T03:33:48.577Z,31.42
2022-11-12T03:36:34.386Z,29.37
2022-11-12T03:39:20.395Z,33.73
2022-11-12T03:42:06.815Z,28.45
2022-11-12T03:44:53.101Z,32.55
2022-11-12T03:47:46.191Z,32.42
2022-11-12T03:50:31.995Z,29.52
2022-11-12T03:53:18.201Z,31.50
2022-11-12T03:56:04.778Z,26.27
2022-11-12T03:58:51.239Z,27.82
2022-11-12T04:01:37.703Z,27.65
2022-11-12T04:04:25.535Z,25.88
2022-11-12T04:07:29.654Z,26.73
2022-11-12T04:10:16.192Z,31.23
2022-11-12T04:13:20.299Z,31.15
2022-11-12T04:16:37.922Z,27.82
2022-11-12T04:19:41.970Z,24.60
2022-11-12T04:22:28.528Z,19.37
2022-11-12T04:25:33.641Z,16.27
2022-11-12T04:28:19.441Z,15.25
2022-11-12T04:31:05.924Z,14.60
2022-11-12T04:33:51.969Z,11.65
2022-11-12T04:36:38.334Z,16.52
2022-11-12T04:39:24.155Z,10.35
2022-11-12T04:42:29.804Z,13.40
2022-11-12T04:45:16.316Z,11.50
2022-11-12T04:48:02.831Z,12.90
2022-11-12T04:50:53.730Z,11.93
2022-11-12T04:53:39.488Z,11.70
2022-11-12T04:56:25.586Z,10.08
2022-11-12T04:59:11.913Z,9.78
2022-11-12T05:01:58.098Z,10.20
2022-11-12T05:04:44.543Z,11.03
2022-11-12T05:07:33.370Z,14.73
2022-11-12T05:10:19.464Z,8.80
2022-11-12T05:13:04.871Z,7.83
2022-11-12T05:15:51.130Z,11.10
2022-11-12T05:18:37.313Z,9.48
2022-11-12T05:21:43.643Z,9.03
2022-11-12T05:24:41.553Z,10.68
2022-11-12T05:27:21.353Z,9.55
2022-11-12T05:30:08.714Z,15.90
2022-11-12T05:32:54.718Z,20.48
2022-11-12T05:35:40.629Z,24.43
2022-11-12T05:38:27.051Z,22.10
2022-11-12T05:41:18.756Z,23.00
2022-11-12T05:44:01.362Z,29.23
2022-11-12T05:46:48.423Z,25.23
2022-11-12T05:49:34.387Z,25.62
2022-11-12T05:52:20.055Z,33.02
2022-11-12T05:55:07.034Z,32.88
2022-11-12T05:57:52.744Z,59.50
2022-11-12T06:00:39.325Z,49.65
2022-11-12T06:03:25.807Z,54.77
2022-11-12T06:06:11.801Z,64.10
2022-11-12T06:08:57.863Z,60.88
2022-11-12T06:11:43.811Z,50.73
2022-11-12T06:14:30.351Z,43.98
2022-11-12T06:17:16.705Z,38.95
2022-11-12T06:20:03.166Z,42.17
2022-11-12T06:22:50.102Z,41.63
2022-11-12T06:25:36.372Z,45.28
2022-11-12T06:28:22.522Z,53.63
2022-11-12T06:31:09.002Z,58.20
2022-11-12T06:33:55.227Z,47.98
2022-11-12T06:36:41.374Z,42.05
2022-11-12T06:39:27.429Z,37.80
2022-11-12T06:42:13.352Z,32.28
2022-11-12T06:44:59.727Z,28.55
2022-11-12T06:47:45.775Z,31.20
2022-11-12T06:50:31.696Z,37.25
2022-11-12T06:53:17.839Z,25.72
2022-11-12T06:56:06.602Z,30.27
2022-11-12T06:58:52.511Z,26.70
2022-11-12T07:01:38.628Z,26.73
2022-11-12T07:04:25.714Z,23.73
2022-11-12T07:07:12.244Z,22.98
2022-11-12T07:09:58.313Z,19.35
2022-11-12T07:12:47.878Z,17.52
2022-11-12T07:15:32.206Z,17.12
2022-11-12T07:18:18.156Z,14.47
2022-11-12T07:21:07.871Z,12.95
2022-11-12T07:23:54.589Z,17.20
2022-11-12T07:26:46.056Z,17.20
2022-11-12T07:29:46.296Z,18.92
2022-11-12T07:32:16.422Z,21.40
2022-11-12T07:35:02.493Z,22.20
2022-11-12T07:37:48.760Z,22.02
2022-11-12T07:40:34.873Z,36.33
2022-11-12T07:43:21.130Z,29.52
2022-11-12T07:46:11.882Z,32.83
2022-11-12T07:48:58.468Z,31.75
2022-11-12T07:51:44.145Z,33.60
2022-11-12T07:54:30.315Z,32.28
2022-11-12T07:57:16.374Z,30.90
2022-11-12T08:00:03.327Z,24.67
2022-11-12T08:02:49.445Z,25.45
2022-11-12T08:05:35.610Z,23.05
2022-11-12T08:08:21.648Z,20.92
2022-11-12T08:11:08.671Z,23.02
2022-11-12T08:13:54.671Z,25.55
2022-11-12T08:16:40.460Z,25.12
2022-11-12T08:19:26.877Z,23.67
2022-11-12T08:22:13.384Z,21.07
2022-11-12T08:24:59.364Z,20.40
2022-11-12T08:27:45.767Z,17.23
2022-11-12T08:30:31.634Z,19.90
2022-11-12T08:33:17.835Z,25.02
2022-11-12T08:36:06.324Z,23.40
2022-11-12T08:38:53.752Z,24.45
2022-11-12T08:41:39.683Z,23.85
2022-11-12T08:44:26.137Z,16.67
2022-11-12T08:47:12.324Z,17.62
2022-11-12T08:49:58.054Z,17.23
2022-11-12T08:52:44.035Z,16.15
2022-11-12T08:55:30.679Z,23.42
2022-11-12T08:58:16.712Z,31.10
2022-11-12T09:01:07.662Z,24.07
2022-11-12T09:03:53.783Z,20.02
2022-11-12T09:06:39.824Z,18.25
2022-11-12T09:09:26.325Z,18.90
2022-11-12T09:12:19.230Z,17.57
2022-11-12T09:15:35.655Z,21.12
2022-11-12T09:17:56.092Z,17.27
2022-11-12T09:20:42.326Z,26.48
2022-11-12T09:23:28.949Z,18.92
2022-11-12T09:26:14.521Z,18.77
2022-11-12T09:29:00.120Z,13.95
2022-11-12T09:31:45.808Z,14.47
2022-11-12T09:34:32.062Z,14.13
2022-11-12T09:37:17.996Z,13.38
2022-11-12T09:40:06.339Z,12.53
2022-11-12T09:42:53.081Z,15.20
2022-11-12T09:45:40.560Z,16.50
2022-11-12T09:48:36.490Z,16.00
2022-11-12T09:51:39.277Z,12.70
2022-11-12T09:54:30.011Z,11.95
2022-11-12T09:57:15.637Z,12.82
2022-11-12T10:00:03.006Z,14.65
2022-11-12T10:03:15.246Z,13.88
2022-11-12T10:06:19.443Z,10.95
2022-11-12T10:12:33.567Z,12.55
2022-11-12T10:16:20.126Z,13.18
2022-11-12T10:19:35.795Z,13.22
2022-11-12T10:22:35.960Z,17.10
2022-11-12T10:25:22.253Z,15.35
2022-11-12T10:28:26.480Z,11.20
2022-11-12T10:31:16.707Z,11.88
2022-11-12T10:34:18.184Z,13.85
2022-11-12T10:37:18.594Z,11.97
2022-11-12T10:40:31.855Z,12.53
2022-11-12T10:43:24.671Z,13.18
2022-11-12T10:46:24.335Z,13.72
2022-11-12T10:49:21.655Z,14.00
2022-11-12T10:52:21.657Z,14.07
2022-11-12T10:55:19.032Z,15.35
2022-11-12T10:58:20.884Z,17.77
2022-11-12T11:01:14.082Z,17.62
2022-11-12T11:04:00.874Z,16.57
2022-11-12T11:06:46.929Z,14.90
2022-11-12T11:09:34.323Z,16.57
2022-11-12T11:12:30.774Z,17.55
2022-11-12T11:15:23.266Z,15.50
2022-11-12T11:18:13.915Z,15.00
2022-11-12T11:21:42.258Z,14.65
2022-11-12T11:24:50.940Z,12.68
2022-11-12T11:28:14.341Z,11.75
2022-11-12T11:31:14.636Z,13.93
2022-11-12T11:34:34.905Z,16.05
2022-11-12T11:37:35.044Z,15.25
2022-11-12T11:40:37.520Z,16.52
2022-11-12T11:43:44.051Z,16.32
2022-11-12T11:46:41.353Z,12.68
2022-11-12T11:50:05.713Z,14.43
2022-11-12T11:53:17.513Z,14.03
2022-11-12T11:56:14.707Z,12.58
2022-11-12T11:59:41.018Z,13.40
2022-11-12T12:03:09.300Z,12.88
2022-11-12T12:06:26.314Z,13.45
2022-11-12T12:09:29.162Z,14.43
2022-11-12T12:13:00.773Z,11.75
2022-11-12T12:16:04.194Z,12.03
2022-11-12T12:18:58.193Z,13.10
2022-11-12T12:24:44.351Z,11.35
2022-11-12T12:27:38.345Z,13.48
2022-11-12T12:30:25.034Z,11.70
2022-11-12T12:33:36.704Z,11.75
2022-11-12T12:36:33.731Z,14.58
2022-11-12T12:39:37.272Z,15.28
2022-11-12T12:42:50.877Z,14.30
2022-11-12T12:45:46.548Z,16.70
2022-11-12T12:48:36.613Z,14.07
2022-11-12T12:51:23.220Z,14.73
2022-11-12T12:54:36.441Z,16.12
2022-11-12T12:57:36.949Z,14.30
2022-11-12T13:00:41.016Z,20.45
2022-11-12T13:04:07.028Z,16.00
2022-11-12T13:06:54.362Z,15.95
2022-11-12T13:09:40.730Z,16.73
2022-11-12T13:13:08.695Z,15.13
2022-11-12T13:15:57.448Z,18.25
2022-11-12T13:18:51.403Z,17.82
2022-11-12T13:21:37.402Z,20.43
2022-11-12T13:24:48.155Z,16.50
2022-11-12T13:27:48.669Z,18.17
2022-11-12T13:30:42.959Z,17.50
2022-11-12T13:33:32.375Z,22.42
2022-11-12T13:36:26.165Z,20.92
2022-11-12T13:39:18.792Z,31.60
2022-11-12T13:42:35.833Z,29.70
2022-11-12T13:45:27.208Z,22.65
2022-11-12T13:48:18.768Z,24.25
2022-11-12T13:51:25.446Z,23.35
2022-11-12T13:54:38.914Z,20.12
2022-11-12T13:57:31.868Z,16.90
2022-11-12T14:00:23.356Z,18.35
2022-11-12T14:03:14.681Z,21.82
2022-11-12T14:06:06.415Z,21.82
2022-11-12T14:09:01.327Z,33.98
2022-11-12T14:12:45.063Z,18.95
2022-11-12T14:15:48.881Z,17.07
2022-11-12T14:19:04.356Z,17.90
2022-11-12T14:22:03.737Z,19.75
2022-11-12T14:24:54.526Z,18.62
2022-11-12T14:27:40.728Z,18.62
2022-11-12T14:30:31.463Z,21.95
2022-11-12T14:33:21.069Z,21.73
2022-11-12T14:36:14.646Z,21.90
2022-11-12T14:39:01.245Z,24.12
2022-11-12T14:41:48.739Z,26.30
2022-11-12T14:44:37.734Z,25.55
2022-11-12T14:47:24.559Z,35.30
2022-11-12T14:50:39.196Z,25.82
2022-11-12T14:53:32.049Z,32.48
2022-11-12T14:56:35.159Z,31.25
2022-11-12T14:59:17.984Z,31.00
2022-11-12T15:02:33.545Z,32.23
2022-11-12T15:05:21.800Z,34.25
2022-11-12T15:08:12.133Z,39.53
2022-11-12T15:11:30.673Z,41.28
2022-11-12T15:14:25.249Z,36.58
2022-11-12T15:17:33.986Z,32.05
2022-11-12T15:20:20.748Z,33.48
2022-11-12T15:23:12.527Z,41.90
2022-11-12T15:26:00.332Z,54.00
2022-11-12T15:29:32.696Z,66.70
2022-11-12T15:32:24.264Z,60.50
2022-11-12T15:35:30.060Z,58.20
2022-11-12T15:38:37.976Z,47.33
2022-11-12T15:41:28.917Z,46.40
2022-11-12T15:44:14.947Z,62.80
2022-11-12T15:47:01.532Z,67.53
2022-11-12T15:49:56.478Z,63.20
2022-11-12T15:52:42.926Z,68.35
2022-11-12T15:55:28.715Z,121.30
2022-11-12T15:58:19.746Z,56.58
2022-11-12T16:01:06.678Z,65.20
2022-11-12T16:03:52.646Z,89.40
2022-11-12T16:06:38.682Z,118.35
2022-11-12T16:09:25.291Z,142.13
2022-11-12T16:12:13.255Z,78.35
2022-11-12T16:14:59.299Z,82.22
2022-11-12T16:17:48.477Z,81.75
2022-11-12T16:20:36.406Z,110.52
2022-11-12T16:23:22.011Z,106.27
2022-11-12T16:26:11.828Z,97.47
2022-11-12T16:28:58.028Z,99.07
2022-11-12T16:31:44.290Z,90.92
2022-11-12T16:34:30.215Z,70.75
2022-11-12T16:37:16.810Z,56.70
2022-11-12T16:40:04.847Z,75.57
2022-11-12T16:42:50.700Z,58.42
2022-11-12T16:45:42.447Z,49.03
2022-11-12T16:48:29.051Z,43.30
2022-11-12T16:51:17.596Z,42.33
2022-11-12T16:54:04.200Z,37.08
2022-11-12T16:56:50.612Z,51.42
2022-11-12T16:59:36.844Z,71.90
2022-11-12T17:02:22.746Z,83.17
2022-11-12T17:05:16.767Z,81.80
2022-11-12T17:08:02.814Z,73.62
2022-11-12T17:10:48.516Z,69.75
2022-11-12T17:13:34.222Z,67.62
2022-11-12T17:16:19.810Z,70.85
2022-11-12T17:19:06.010Z,76.53
2022-11-12T17:21:52.578Z,84.52
2022-11-12T17:24:38.147Z,96.57
2022-11-12T17:27:24.147Z,99.47
2022-11-12T17:30:11.543Z,86.37
2022-11-12T17:32:59.613Z,76.85
2022-11-12T17:35:45.318Z,73.92
2022-11-12T17:38:31.874Z,78.97
2022-11-12T17:41:18.083Z,78.30
2022-11-12T17:44:04.945Z,80.20
2022-11-12T17:46:50.708Z,89.20
2022-11-12T17:49:37.191Z,97.78
2022-11-12T17:52:23.205Z,93.22
2022-11-12T17:55:09.641Z,84.75
2022-11-12T17:57:55.819Z,88.85
2022-11-12T18:00:41.603Z,97.92
2022-11-12T18:03:27.467Z,85.65
2022-11-12T18:06:17.218Z,105.50
2022-11-12T18:09:07.709Z,86.22
2022-11-12T18:11:55.839Z,79.12
2022-11-12T18:14:41.570Z,95.67
2022-11-12T18:17:27.840Z,86.60
2022-11-12T18:20:13.793Z,80.10
2022-11-12T18:23:00.733Z,93.52
2022-11-12T18:25:46.929Z,87.17
2022-11-12T18:28:33.790Z,81.30
2022-11-12T18:31:21.305Z,77.05
2022-11-12T18:34:13.371Z,82.92
2022-11-12T18:36:59.876Z,77.15
2022-11-12T18:39:46.156Z,72.25
2022-11-12T18:42:35.762Z,70.15
2022-11-12T18:45:22.095Z,74.20
2022-11-12T18:48:07.917Z,76.80
2022-11-12T18:50:59.944Z,68.30
2022-11-12T18:53:47.093Z,65.30
2022-11-12T18:56:32.871Z,66.40
2022-11-12T18:59:18.841Z,65.15
2022-11-12T19:02:05.903Z,63.87
2022-11-12T19:04:52.088Z,61.53
2022-11-12T19:07:37.646Z,68.75
2022-11-12T19:10:23.550Z,69.55
2022-11-12T19:13:09.542Z,75.70
2022-11-12T19:15:58.092Z,73.10
2022-11-12T19:18:45.123Z,70.05
2022-11-12T19:21:31.069Z,61.98
2022-11-12T19:24:17.253Z,63.70
2022-11-12T19:27:03.204Z,68.07
2022-11-12T19:29:49.901Z,58.85
2022-11-12T19:32:35.608Z,56.65
2022-11-12T19:35:22.257Z,69.80
2022-11-12T19:38:08.081Z,66.65
2022-11-12T19:40:54.475Z,62.75
2022-11-12T19:43:41.154Z,52.78
2022-11-12T19:46:26.855Z,33.38
2022-11-12T19:49:12.571Z,33.67
2022-11-12T19:51:58.694Z,46.28
2022-11-12T19:54:45.191Z,57.15
2022-11-12T19:57:31.421Z,59.85
2022-11-12T20:00:17.915Z,55.45
2022-11-12T20:03:04.565Z,68.92
2022-11-12T20:05:51.915Z,66.07
2022-11-12T20:08:38.250Z,78.37
2022-11-12T20:11:24.110Z,59.33
2022-11-12T20:14:09.887Z,52.48
2022-11-12T20:16:55.886Z,52.80
2022-11-12T20:19:42.031Z,53.92
2022-11-12T20:22:32.261Z,64.95
2022-11-12T20:25:18.520Z,54.50
2022-11-12T20:28:05.063Z,39.40
2022-11-12T20:30:50.885Z,40.10
2022-11-12T20:33:42.015Z,41.45
2022-11-12T20:36:25.074Z,45.55
2022-11-12T20:39:11.458Z,42.05
2022-11-12T20:41:58.019Z,43.40
2022-11-12T20:44:44.203Z,50.70
2022-11-12T20:47:30.463Z,55.35
2022-11-12T20:50:16.915Z,54.63
2022-11-12T20:53:02.891Z,52.13
2022-11-12T20:55:48.357Z,52.35
2022-11-12T20:58:34.437Z,51.13
2022-11-12T21:01:23.534Z,50.17
2022-11-12T21:04:12.092Z,51.33
2022-11-12T21:07:02.371Z,56.42
2022-11-12T21:09:45.926Z,69.17
2022-11-12T21:12:31.903Z,64.22
2022-11-12T21:15:18.620Z,73.00
2022-11-12T21:18:04.887Z,71.05
2022-11-12T21:20:52.076Z,70.78
2022-11-12T21:23:40.961Z,68.17
2022-11-12T21:26:26.834Z,69.05
2022-11-12T21:29:18.694Z,67.45
2022-11-12T21:32:01.688Z,71.90
2022-11-12T21:34:48.182Z,79.15
2022-11-12T21:37:34.035Z,94.25
2022-11-12T21:40:21.614Z,90.30
2022-11-12T21:43:07.368Z,90.10
2022-11-12T21:45:53.457Z,85.32
2022-11-12T21:48:40.139Z,80.45
2022-11-12T21:51:28.917Z,74.92
2022-11-12T21:54:14.574Z,70.85
2022-11-12T21:57:00.442Z,79.22
2022-11-12T21:59:46.508Z,79.67
2022-11-12T22:02:32.945Z,96.25
2022-11-12T22:05:18.892Z,84.52
2022-11-12T22:08:05.142Z,76.00
2022-11-12T22:10:51.229Z,88.33
2022-11-12T22:13:38.305Z,82.47
2022-11-12T22:16:28.703Z,79.95
2022-11-12T22:19:15.576Z,75.12
2022-11-12T22:22:01.744Z,68.12
2022-11-12T22:24:47.984Z,71.80
2022-11-12T22:27:33.984Z,84.05
2022-11-12T22:30:19.784Z,80.90
2022-11-12T22:33:05.979Z,76.02
2022-11-12T22:35:52.345Z,73.87
2022-11-12T22:38:40.874Z,55.58
2022-11-12T22:41:29.981Z,43.38
2022-11-12T22:44:16.363Z,41.68
2022-11-12T22:47:02.368Z,40.23
2022-11-12T22:49:48.454Z,36.77
2022-11-12T22:52:34.806Z,34.05
2022-11-12T22:55:20.886Z,35.03
2022-11-12T22:58:07.064Z,43.28
2022-11-12T23:00:53.176Z,42.23
2022-11-12T23:03:39.099Z,42.03
2022-11-12T23:06:26.511Z,35.30
2022-11-12T23:09:16.749Z,40.25
2022-11-12T23:12:02.930Z,39.60
2022-11-12T23:14:49.013Z,38.50
2022-11-12T23:17:34.823Z,37.65
2022-11-12T23:20:20.863Z,34.85
2022-11-12T23:23:07.752Z,37.63
2022-11-12T23:25:53.627Z,37.83
2022-11-12T23:28:39.785Z,43.65
2022-11-12T23:31:29.581Z,40.00
2022-11-12T23:34:15.362Z,38.50
2022-11-12T23:37:01.299Z,40.73
2022-11-12T23:39:47.227Z,40.58
2022-11-12T23:42:33.410Z,41.70
2022-11-12T23:45:19.453Z,43.63
2022-11-12T23:48:05.951Z,40.40
2022-11-12T23:51:06.058Z,40.65
2022-11-12T23:53:52.032Z,42.20
2022-11-12T23:56:38.214Z,37.40
2022-11-12T23:59:24.106Z,51.13
